TimeAEST,TemperatureF,Dew PointF,Humidity,Sea Level PressureIn,VisibilityMPH,Wind Direction,Wind SpeedMPH,Gust SpeedMPH,PrecipitationIn,Events,Conditions,WindDirDegrees,DateUTC
12:00 AM,48,41,69,30.00,22,NW,10.4,,,,Partly Cloudy,310,2013-09-11 14:00:00
12:00 AM,48.2,41.0,76,29.98,6.2,NW,10.4,-,N/A,,Partly Cloudy,310,2013-09-11 14:00:00
12:30 AM,46.4,41.0,81,29.98,6.2,WNW,10.4,-,N/A,,Partly Cloudy,300,2013-09-11 14:30:00
1:00 AM,47,42,75,30.00,,West,12.7,,,,,270,2013-09-11 15:00:00
1:00 AM,48.2,41.0,76,29.98,6.2,West,12.7,-,N/A,,Scattered Clouds,270,2013-09-11 15:00:00
1:30 AM,44.6,39.2,81,29.98,6.2,NW,9.2,-,N/A,,Scattered Clouds,310,2013-09-11 15:30:00
2:00 AM,46,40,74,29.99,,WNW,10.4,,,,,300,2013-09-11 16:00:00
2:00 AM,46.4,41.0,81,29.98,6.2,WNW,10.4,-,N/A,,Mostly Cloudy,300,2013-09-11 16:00:00
2:30 AM,46.4,41.0,81,29.98,6.2,NW,10.4,-,N/A,,Scattered Clouds,310,2013-09-11 16:30:00
3:00 AM,47,41,73,29.98,19,WNW,8.1,,,,Partly Cloudy,300,2013-09-11 17:00:00
3:00 AM,46.4,41.0,81,29.98,6.2,WNW,8.1,-,N/A,,Mostly Cloudy,300,2013-09-11 17:00:00
3:30 AM,46.4,42.8,87,29.98,6.2,WNW,6.9,-,N/A,,Mostly Cloudy,290,2013-09-11 17:30:00
4:00 AM,47,43,80,29.99,,West,6.9,,,,,270,2013-09-11 18:00:00
4:00 AM,46.4,42.8,87,29.98,6.2,West,6.9,-,N/A,Rain,Light Rain Showers,270,2013-09-11 18:00:00
4:30 AM,44.6,42.8,93,29.98,6.2,West,6.9,-,N/A,,Scattered Clouds,280,2013-09-11 18:30:00
5:00 AM,43,41,91,30.00,,West,5.8,,,,,280,2013-09-11 19:00:00
5:00 AM,42.8,41.0,93,29.98,6.2,West,5.8,-,N/A,,Scattered Clouds,280,2013-09-11 19:00:00
5:30 AM,44.6,42.8,93,29.98,6.2,NW,6.9,-,N/A,,Mostly Cloudy,310,2013-09-11 19:30:00
6:00 AM,44.6,41.0,87,29.98,6.2,WNW,5.8,-,N/A,,Scattered Clouds,300,2013-09-11 20:00:00
6:30 AM,44.6,42.8,93,30.01,6.2,West,9.2,-,N/A,,Scattered Clouds,270,2013-09-11 20:30:00
7:00 AM,45,43,89,30.01,,West,8.1,,,,,270,2013-09-11 21:00:00
7:00 AM,44.6,42.8,93,30.01,6.2,West,8.1,-,N/A,,Mostly Cloudy,270,2013-09-11 21:00:00
7:30 AM,46.4,42.8,87,30.01,6.2,WSW,9.2,-,N/A,,Scattered Clouds,250,2013-09-11 21:30:00
8:00 AM,48,42,73,30.04,,WSW,12.7,,,,,240,2013-09-11 22:00:00
8:00 AM,48.2,42.8,82,30.01,6.2,WSW,12.7,-,N/A,,Mostly Cloudy,240,2013-09-11 22:00:00
8:30 AM,46.4,42.8,87,30.04,5.0,SW,16.1,-,N/A,Rain,Light Rain Showers,220,2013-09-11 22:30:00
9:00 AM,48,44,79,30.06,12,SSW,13.8,,,Rain,Light Rain Showers,210,2013-09-11 23:00:00
9:00 AM,48.2,42.8,82,30.04,6.2,SSW,13.8,-,N/A,,Mostly Cloudy,210,2013-09-11 23:00:00
9:30 AM,46.4,41.0,81,30.06,6.2,SSW,15.0,-,N/A,Rain,Light Rain Showers,210,2013-09-11 23:30:00
10:00 AM,49,41,64,30.07,,SW,11.5,,,,,230,2013-09-12 00:00:00
10:00 AM,48.2,41.0,76,30.06,6.2,SW,11.5,-,N/A,,Mostly Cloudy,230,2013-09-12 00:00:00
10:30 AM,50.0,41.0,71,30.06,6.2,SSW,10.4,-,N/A,,Mostly Cloudy,200,2013-09-12 00:30:00
10:52 AM,46.4,39.2,76,30.06,6.2,SSW,17.3,29.9,N/A,Rain,Light Rain Showers,210,2013-09-12 00:52:00
11:00 AM,46.4,41.0,81,30.06,6.2,SSE,19.6,-,N/A,,Mostly Cloudy,160,2013-09-12 01:00:00
11:30 AM,48.2,42.8,82,30.06,6.2,South,10.4,-,N/A,Rain,Light Rain Showers,190,2013-09-12 01:30:00
12:00 PM,51,39,54,30.07,19,South,10.4,,,Rain,Light Rain Showers,190,2013-09-12 02:00:00
12:00 PM,50.0,39.2,66,30.06,6.2,South,10.4,-,N/A,,Scattered Clouds,190,2013-09-12 02:00:00
12:30 PM,51.8,37.4,58,30.04,6.2,South,12.7,-,N/A,,Scattered Clouds,180,2013-09-12 02:30:00
1:00 PM,54,36,40,30.06,,South,13.8,,,,,180,2013-09-12 03:00:00
1:00 PM,53.6,37.4,54,30.04,6.2,South,13.8,-,N/A,,Scattered Clouds,180,2013-09-12 03:00:00
1:30 PM,55.4,32.0,41,30.04,6.2,South,12.7,-,N/A,,Partly Cloudy,190,2013-09-12 03:30:00
2:00 PM,53.6,32.0,44,30.04,6.2,South,15.0,-,N/A,,Partly Cloudy,170,2013-09-12 04:00:00
2:30 PM,55.4,32.0,41,30.04,6.2,South,12.7,-,N/A,,Partly Cloudy,170,2013-09-12 04:30:00
3:00 PM,54,33,32,30.06,19,South,12.7,,,,Partly Cloudy,170,2013-09-12 05:00:00
3:00 PM,55.4,32.0,41,30.04,6.2,South,12.7,-,N/A,,Partly Cloudy,170,2013-09-12 05:00:00
3:30 PM,53.6,32.0,44,30.04,6.2,South,11.5,-,N/A,,Partly Cloudy,170,2013-09-12 05:30:00
4:00 PM,54,32,30,30.04,,South,12.7,,,,,190,2013-09-12 06:00:00
4:00 PM,53.6,32.0,44,30.04,6.2,South,12.7,-,N/A,,Partly Cloudy,190,2013-09-12 06:00:00
4:30 PM,51.8,30.2,44,30.04,6.2,South,12.7,-,N/A,,Scattered Clouds,180,2013-09-12 06:30:00
5:00 PM,52,31,33,30.05,,South,10.4,,,,,180,2013-09-12 07:00:00
5:00 PM,51.8,32.0,47,30.04,6.2,South,10.4,-,N/A,,Mostly Cloudy,180,2013-09-12 07:00:00
5:30 PM,51.8,28.4,41,30.06,6.2,South,11.5,-,N/A,,Mostly Cloudy,170,2013-09-12 07:30:00
6:00 PM,48,32,41,30.08,19,South,9.2,,,,Partly Cloudy,180,2013-09-12 08:00:00
6:00 PM,48.2,32.0,54,30.06,6.2,South,9.2,-,N/A,,Partly Cloudy,180,2013-09-12 08:00:00
7:00 PM,46,34,53,30.10,,South,5.8,,,,,180,2013-09-12 09:00:00
7:00 PM,46.4,33.8,62,30.09,-9999.0,South,5.8,-,N/A,,Clear,180,2013-09-12 09:00:00
7:30 PM,46.4,33.8,62,30.09,-9999.0,South,6.9,-,N/A,,Clear,170,2013-09-12 09:30:00
8:00 PM,44,35,63,30.10,,South,6.9,,,,,170,2013-09-12 10:00:00
8:00 PM,44.6,35.6,71,30.09,-9999.0,South,6.9,-,N/A,,Clear,170,2013-09-12 10:00:00
9:00 PM,46,33,50,30.11,19,East,8.1,,,,Partly Cloudy,90,2013-09-12 11:00:00
9:00 PM,46.4,33.8,62,30.09,-9999.0,East,8.1,-,N/A,,Clear,90,2013-09-12 11:00:00
9:30 PM,44.6,33.8,66,30.09,-9999.0,ENE,5.8,-,N/A,,Clear,60,2013-09-12 11:30:00
10:00 PM,41,33,64,30.11,,NE,5.8,,,,,50,2013-09-12 12:00:00
10:00 PM,41.0,33.8,76,30.09,-9999.0,NE,5.8,-,N/A,,Clear,50,2013-09-12 12:00:00
10:30 PM,42.8,33.8,70,30.09,-9999.0,East,9.2,-,N/A,,Clear,80,2013-09-12 12:30:00
11:00 PM,41,34,69,30.10,,NE,6.9,,,,,50,2013-09-12 13:00:00
11:00 PM,41.0,33.8,76,30.09,-9999.0,NE,6.9,-,N/A,,Clear,50,2013-09-12 13:00:00
11:30 PM,41.0,33.8,76,30.09,-9999.0,ENE,6.9,-,N/A,,Clear,70,2013-09-12 13:30:00